createdAt,value
2022-08-19T00:00:44.479Z,75.40
2022-08-19T00:03:12.205Z,76.32
2022-08-19T00:05:41.490Z,75.24
2022-08-19T00:08:09.255Z,75.49
2022-08-19T00:10:37.008Z,75.39
2022-08-19T00:16:44.861Z,75.18
2022-08-19T00:19:12.789Z,75.03
2022-08-19T00:21:40.731Z,75.58
2022-08-19T00:24:10.073Z,75.54
2022-08-19T00:26:38.882Z,75.51
2022-08-19T00:29:08.650Z,76.08
2022-08-19T00:31:36.659Z,76.91
2022-08-19T00:34:05.824Z,76.96
2022-08-19T00:36:34.052Z,77.22
2022-08-19T00:39:02.360Z,76.92
2022-08-19T00:41:30.591Z,76.98
2022-08-19T00:47:44.967Z,76.68
2022-08-19T00:50:16.882Z,77.26
2022-08-19T00:52:48.174Z,76.91
2022-08-19T00:55:20.771Z,76.73
2022-08-19T00:57:53.229Z,76.70
2022-08-19T01:00:22.346Z,76.94
2022-08-19T01:02:50.191Z,77.33
2022-08-19T01:05:22.630Z,77.10
2022-08-19T01:07:52.575Z,76.93
2022-08-19T01:10:23.975Z,77.00
2022-08-19T01:12:53.037Z,77.59
2022-08-19T01:15:23.685Z,77.49
2022-08-19T01:44:24.886Z,77.81
2022-08-19T01:46:53.410Z,77.30
2022-08-19T01:49:23.993Z,77.22
2022-08-19T01:51:52.038Z,77.15
2022-08-19T01:54:23.145Z,76.93
2022-08-19T01:56:59.841Z,76.70
2022-08-19T01:59:29.461Z,76.49
2022-08-19T02:01:57.218Z,75.91
2022-08-19T02:04:26.476Z,75.74
2022-08-19T02:06:54.303Z,75.99
2022-08-19T02:09:22.026Z,75.83
2022-08-19T02:16:51.937Z,75.38
2022-08-19T02:19:18.285Z,75.50
2022-08-19T02:21:44.718Z,75.54
2022-08-19T02:24:13.214Z,75.31
2022-08-19T02:26:41.071Z,75.41
2022-08-19T02:29:08.747Z,75.30
2022-08-19T02:31:36.883Z,75.50
2022-08-19T02:34:05.957Z,75.18
2022-08-19T02:36:33.627Z,74.38
2022-08-19T02:39:00.304Z,74.25
2022-08-19T02:45:17.018Z,75.21
2022-08-19T02:47:45.066Z,74.99
2022-08-19T02:50:14.634Z,74.89
2022-08-19T02:52:42.727Z,74.41
2022-08-19T02:55:11.020Z,75.06
2022-08-19T02:57:38.759Z,74.39
2022-08-19T03:00:09.043Z,75.23
2022-08-19T03:02:36.742Z,74.92
2022-08-19T03:08:54.139Z,74.66
2022-08-19T03:11:24.410Z,75.01
2022-08-19T03:13:54.407Z,75.78
2022-08-19T03:16:24.835Z,75.59
2022-08-19T03:18:52.990Z,75.40
2022-08-19T03:21:24.876Z,75.34
2022-08-19T03:23:56.657Z,75.90
2022-08-19T03:26:24.427Z,76.15
2022-08-19T03:28:57.817Z,75.95
2022-08-19T03:31:44.084Z,76.27
2022-08-19T03:34:14.193Z,76.20
2022-08-19T03:41:45.196Z,76.31
2022-08-19T03:44:17.964Z,76.13
2022-08-19T03:46:46.344Z,76.18
2022-08-19T03:49:14.318Z,75.77
2022-08-19T03:51:42.782Z,75.58
2022-08-19T03:54:11.534Z,75.52
2022-08-19T03:56:40.473Z,75.75
2022-08-19T04:05:29.090Z,75.50
2022-08-19T04:07:59.005Z,75.68
2022-08-19T04:10:25.758Z,75.49
2022-08-19T04:12:52.260Z,76.18
2022-08-19T04:15:19.268Z,74.95
2022-08-19T04:17:45.639Z,75.23
2022-08-19T04:20:12.289Z,74.81
2022-08-19T04:26:27.522Z,74.57
2022-08-19T04:28:55.491Z,75.23
2022-08-19T04:31:26.263Z,76.19
2022-08-19T04:33:52.833Z,75.46
2022-08-19T04:36:21.345Z,75.13
2022-08-19T04:38:47.978Z,74.43
2022-08-19T04:41:32.932Z,74.97
2022-08-19T04:49:13.223Z,73.17
2022-08-19T04:51:42.633Z,73.46
2022-08-19T04:54:09.460Z,73.54
2022-08-19T04:56:35.941Z,73.43
2022-08-19T04:59:03.665Z,72.38
2022-08-19T05:01:32.647Z,74.01
2022-08-19T05:04:00.938Z,74.21
2022-08-19T05:10:53.547Z,73.79
2022-08-19T05:13:21.750Z,73.51
2022-08-19T05:15:56.299Z,73.10
2022-08-19T05:18:41.690Z,72.82
2022-08-19T05:21:27.969Z,72.96
2022-08-19T05:35:34.645Z,75.22
2022-08-19T05:38:02.824Z,73.91
2022-08-19T05:40:30.608Z,74.88
2022-08-19T05:42:58.307Z,74.11
2022-08-19T05:45:26.181Z,74.70
2022-08-19T05:47:53.838Z,73.98
2022-08-19T05:50:23.092Z,72.59
2022-08-19T06:00:41.920Z,72.14
2022-08-19T06:03:11.850Z,72.15
2022-08-19T06:05:44.808Z,72.15
2022-08-19T06:08:19.676Z,71.49
2022-08-19T06:10:47.512Z,71.51
2022-08-19T06:13:15.239Z,72.17
2022-08-19T06:15:45.232Z,72.08
2022-08-19T06:25:48.595Z,72.55
2022-08-19T06:28:16.688Z,73.21
2022-08-19T06:30:46.142Z,73.07
2022-08-19T06:33:13.892Z,73.07
2022-08-19T06:43:10.610Z,71.23
2022-08-19T06:45:40.385Z,72.01
2022-08-19T07:15:39.779Z,74.74
2022-08-19T07:18:11.740Z,73.46
2022-08-19T07:20:40.062Z,74.73
2022-08-19T07:30:41.663Z,73.63
2022-08-19T07:33:12.934Z,74.80
2022-08-19T07:35:42.641Z,74.29
2022-08-19T07:38:10.615Z,73.61
2022-08-19T07:40:38.373Z,73.75
2022-08-19T07:43:11.206Z,74.20
2022-08-19T07:45:43.328Z,74.65
2022-08-19T07:48:12.331Z,74.99
2022-08-19T07:50:40.235Z,73.62
2022-08-19T07:53:08.002Z,74.77
2022-08-19T07:55:41.224Z,73.72
2022-08-19T08:02:00.647Z,73.22
2022-08-19T08:04:48.337Z,73.89
2022-08-19T08:14:47.056Z,74.85
2022-08-19T08:17:16.198Z,73.31
2022-08-19T08:20:00.695Z,72.54
2022-08-19T08:22:46.026Z,72.65
2022-08-19T08:25:17.337Z,72.38
2022-08-19T08:27:47.010Z,73.35
2022-08-19T08:30:21.630Z,73.43
2022-08-19T08:44:22.205Z,73.87
2022-08-19T08:46:54.151Z,72.18
2022-08-19T08:49:35.733Z,73.69
2022-08-19T08:52:08.116Z,73.49
2022-08-19T08:54:41.373Z,73.37
2022-08-19T08:57:28.897Z,72.32
2022-08-19T09:00:15.302Z,72.69
2022-08-19T09:02:43.958Z,72.54
2022-08-19T09:05:16.692Z,72.72
2022-08-19T09:07:52.216Z,73.19
2022-08-19T09:33:05.587Z,76.20
2022-08-19T09:35:33.296Z,75.27
2022-08-19T09:38:18.357Z,75.88
2022-08-19T09:40:46.034Z,75.57
2022-08-19T09:43:13.724Z,75.41
2022-08-19T09:45:42.065Z,75.30
2022-08-19T09:48:11.820Z,76.78
2022-08-19T09:50:51.726Z,75.84
2022-08-19T09:53:20.334Z,75.63
2022-08-19T09:55:48.069Z,77.33
2022-08-19T09:58:15.810Z,76.51
2022-08-19T10:00:43.564Z,77.39
2022-08-19T10:03:19.993Z,77.13
2022-08-19T10:05:50.590Z,77.12
2022-08-19T10:08:26.689Z,78.10
2022-08-19T10:10:55.839Z,78.23
2022-08-19T10:13:27.063Z,79.41
2022-08-19T10:15:56.883Z,79.48
2022-08-19T10:18:27.276Z,79.92
2022-08-19T10:21:09.535Z,80.05
2022-08-19T10:23:42.460Z,79.88
2022-08-19T10:26:10.156Z,80.01
2022-08-19T10:28:39.213Z,78.59
2022-08-19T10:31:08.318Z,77.94
2022-08-19T10:33:53.483Z,78.79
2022-08-19T10:36:24.563Z,78.29
2022-08-19T10:38:56.959Z,77.97
2022-08-19T10:41:28.162Z,77.18
2022-08-19T10:43:58.938Z,77.16
2022-08-19T10:46:33.457Z,76.74
2022-08-19T10:49:03.534Z,76.25
2022-08-19T11:09:33.313Z,73.43
2022-08-19T11:19:29.096Z,73.66
2022-08-19T11:21:56.564Z,74.35
2022-08-19T11:24:27.734Z,74.72
2022-08-19T11:27:01.476Z,75.39
2022-08-19T12:33:01.294Z,74.00
2022-08-19T12:54:05.955Z,72.69
2022-08-19T12:56:34.382Z,72.55
2022-08-19T12:59:03.664Z,71.53
2022-08-19T13:01:33.770Z,71.32
2022-08-19T13:04:01.661Z,70.28
2022-08-19T13:06:29.513Z,69.89
2022-08-19T13:08:59.639Z,70.32
2022-08-19T13:11:33.285Z,70.52
2022-08-19T13:14:02.063Z,69.92
2022-08-19T13:16:30.006Z,70.48
2022-08-19T13:18:58.554Z,70.64
2022-08-19T13:21:30.868Z,70.03
2022-08-19T13:23:59.125Z,68.64
2022-08-19T13:26:28.203Z,67.63
2022-08-19T13:29:13.575Z,67.75
2022-08-19T13:32:00.401Z,66.96
2022-08-19T13:34:32.081Z,66.67
2022-08-19T13:37:00.486Z,67.17
2022-08-19T13:39:28.370Z,67.92
2022-08-19T13:41:57.820Z,67.79
2022-08-19T13:44:25.710Z,67.84
2022-08-19T13:46:54.488Z,68.58
2022-08-19T13:49:24.092Z,68.28
2022-08-19T13:51:51.939Z,68.85
2022-08-19T13:54:19.665Z,68.97
2022-08-19T13:56:47.959Z,69.23
2022-08-19T13:59:17.520Z,69.22
2022-08-19T14:01:45.272Z,68.89
2022-08-19T14:04:13.027Z,69.91
2022-08-19T14:06:40.765Z,69.83
2022-08-19T14:09:08.705Z,69.78
2022-08-19T14:11:36.527Z,69.73
2022-08-19T14:14:04.243Z,70.37
2022-08-19T14:16:33.347Z,69.83
2022-08-19T14:19:01.026Z,69.27
2022-08-19T14:32:53.067Z,66.69
2022-08-19T14:35:22.115Z,67.85
2022-08-19T14:37:51.624Z,68.70
2022-08-19T14:55:32.697Z,68.66
2022-08-19T14:58:00.457Z,68.69
2022-08-19T15:00:30.214Z,69.15
2022-08-19T15:03:00.021Z,69.06
2022-08-19T15:05:28.661Z,68.22
2022-08-19T15:19:20.929Z,66.89
2022-08-19T15:21:48.679Z,67.33
2022-08-19T15:24:16.679Z,66.55
2022-08-19T15:34:24.987Z,70.05
2022-08-19T16:03:45.806Z,78.40
2022-08-19T16:06:27.091Z,77.79
2022-08-19T16:08:55.432Z,77.92
2022-08-19T16:15:31.959Z,77.14
2022-08-19T16:18:03.330Z,77.33
2022-08-19T16:20:41.238Z,76.89
2022-08-19T16:23:09.117Z,75.72
2022-08-19T16:25:36.805Z,75.40
2022-08-19T16:28:07.571Z,76.48
2022-08-19T16:30:37.870Z,75.85
2022-08-19T16:33:05.631Z,76.38
2022-08-19T16:39:16.588Z,77.30
2022-08-19T16:41:46.234Z,76.45
2022-08-19T16:44:16.049Z,76.52
2022-08-19T16:46:43.822Z,76.25
2022-08-19T16:49:14.689Z,76.18
2022-08-19T16:51:44.208Z,76.22
2022-08-19T16:57:54.121Z,76.74
2022-08-19T17:07:50.664Z,77.50
2022-08-19T17:14:02.072Z,78.78
2022-08-19T17:16:32.039Z,78.71
2022-08-19T17:19:02.287Z,77.80
2022-08-19T17:21:33.098Z,78.40
2022-08-19T17:24:02.450Z,78.59
2022-08-19T17:26:30.750Z,78.74
2022-08-19T17:29:01.246Z,78.41
2022-08-19T17:35:24.401Z,79.29
2022-08-19T17:41:57.085Z,79.72
2022-08-19T17:44:33.089Z,79.10
2022-08-19T17:47:00.783Z,78.70
2022-08-19T17:49:28.566Z,78.88
2022-08-19T17:51:56.438Z,79.02
2022-08-19T17:54:25.499Z,79.58
2022-08-19T17:57:02.280Z,78.93
2022-08-19T17:59:31.360Z,78.94
2022-08-19T18:02:00.695Z,78.74
2022-08-19T18:04:38.290Z,78.69
2022-08-19T18:07:06.378Z,77.98
2022-08-19T18:09:41.769Z,77.78
2022-08-19T18:12:11.803Z,77.39
2022-08-19T18:14:42.380Z,77.02
2022-08-19T18:17:12.805Z,77.16
2022-08-19T18:19:43.996Z,76.61
2022-08-19T18:22:14.538Z,76.40
2022-08-19T18:24:45.857Z,76.44
2022-08-19T18:27:13.910Z,76.99
2022-08-19T18:29:43.419Z,76.63
2022-08-19T18:32:13.603Z,76.06
2022-08-19T18:34:42.014Z,76.59
2022-08-19T18:37:09.942Z,77.25
2022-08-19T18:39:55.411Z,77.27
2022-08-19T18:42:40.358Z,78.38
2022-08-19T18:45:28.505Z,77.95
2022-08-19T18:48:27.118Z,77.05
2022-08-19T18:50:56.413Z,76.74
2022-08-19T18:53:24.102Z,76.13
2022-08-19T18:55:53.832Z,77.49
2022-08-19T18:58:25.902Z,77.45
2022-08-19T19:01:09.074Z,77.10
2022-08-19T19:03:37.137Z,76.47
2022-08-19T19:06:05.913Z,75.74
2022-08-19T19:08:33.782Z,75.68
2022-08-19T19:11:05.121Z,76.05
2022-08-19T19:24:59.270Z,76.22
2022-08-19T19:27:27.133Z,76.32
2022-08-19T19:29:55.683Z,76.53
2022-08-19T19:32:26.093Z,77.42
2022-08-19T19:34:53.945Z,77.77
2022-08-19T19:37:22.508Z,77.67
2022-08-19T19:39:50.516Z,77.43
2022-08-19T19:42:23.682Z,77.41
2022-08-19T19:44:54.808Z,77.45
2022-08-19T19:47:24.289Z,77.34
2022-08-19T19:50:13.213Z,77.49
2022-08-19T19:52:40.557Z,78.22
2022-08-19T19:55:09.477Z,78.04
2022-08-19T19:57:39.702Z,77.96
2022-08-19T20:00:09.971Z,77.21
2022-08-19T20:18:09.321Z,79.65
2022-08-19T20:20:37.051Z,78.73
2022-08-19T20:23:09.426Z,79.12
2022-08-19T20:25:43.195Z,79.99
2022-08-19T20:28:12.323Z,80.49
2022-08-19T20:30:46.241Z,80.78
2022-08-19T20:44:56.872Z,79.83
2022-08-19T20:47:25.020Z,79.44
2022-08-19T20:49:53.225Z,78.98
2022-08-19T20:52:21.005Z,79.36
2022-08-19T20:54:48.715Z,80.78
2022-08-19T20:57:16.509Z,80.78
2022-08-19T20:59:44.901Z,80.44
2022-08-19T21:02:14.016Z,79.82
2022-08-19T21:04:41.853Z,79.82
2022-08-19T21:07:09.656Z,79.61
2022-08-19T21:09:38.398Z,79.04
2022-08-19T21:12:06.846Z,79.06
2022-08-19T21:14:35.080Z,78.92
2022-08-19T21:17:02.787Z,79.52
2022-08-19T21:19:31.843Z,80.07
2022-08-19T21:22:00.840Z,80.44
2022-08-19T21:24:31.491Z,81.30
2022-08-19T21:26:59.855Z,81.78
2022-08-19T21:33:18.333Z,82.13
2022-08-19T21:35:47.380Z,82.01
2022-08-19T21:38:15.130Z,82.38
2022-08-19T21:40:42.998Z,82.23
2022-08-19T21:43:10.691Z,82.29
2022-08-19T21:45:38.459Z,82.38
2022-08-19T21:48:06.883Z,81.95
2022-08-19T21:54:16.982Z,82.02
2022-08-19T21:56:44.665Z,81.70
2022-08-19T21:59:12.376Z,80.02
2022-08-19T22:01:40.868Z,80.44
2022-08-19T22:04:10.566Z,79.99
2022-08-19T22:06:38.459Z,79.82
2022-08-19T22:09:06.517Z,79.58
2022-08-19T22:11:36.314Z,80.37
2022-08-19T22:14:05.663Z,81.53
2022-08-19T22:16:36.012Z,80.96
2022-08-19T22:19:03.746Z,81.37
2022-08-19T22:33:01.250Z,82.37
2022-08-19T22:35:31.507Z,82.58
2022-08-19T22:37:59.898Z,82.96
2022-08-19T22:40:29.722Z,83.00
2022-08-19T22:43:03.392Z,82.97
2022-08-19T23:04:32.667Z,83.08
2022-08-19T23:06:59.078Z,83.17
2022-08-19T23:09:25.483Z,83.18
2022-08-19T23:11:57.033Z,83.23
2022-08-19T23:14:23.426Z,83.17
2022-08-19T23:17:08.898Z,83.10
2022-08-19T23:19:37.710Z,82.80
2022-08-19T23:25:57.812Z,83.14
2022-08-19T23:28:42.485Z,83.89
2022-08-19T23:31:08.918Z,83.61
2022-08-19T23:33:46.842Z,84.64
2022-08-19T23:36:19.344Z,84.50
2022-08-19T23:38:48.070Z,84.35
2022-08-19T23:41:17.076Z,83.74
2022-08-19T23:43:45.419Z,84.23
2022-08-19T23:50:14.207Z,83.99
2022-08-19T23:52:47.071Z,83.76
2022-08-19T23:55:15.981Z,84.02
2022-08-19T23:57:45.025Z,83.84
